createdAt,value
2022-08-21T00:02:25.271Z,21.80
2022-08-21T00:04:57.791Z,22.00
2022-08-21T00:07:26.027Z,22.10
2022-08-21T00:09:53.751Z,22.10
2022-08-21T00:12:21.493Z,22.10
2022-08-21T00:14:48.575Z,22.10
2022-08-21T00:17:15.607Z,22.00
2022-08-21T00:19:42.541Z,22.10
2022-08-21T00:22:09.713Z,22.30
2022-08-21T00:24:37.192Z,22.30
2022-08-21T00:27:04.331Z,22.40
2022-08-21T00:29:31.374Z,22.50
2022-08-21T00:31:58.374Z,22.40
2022-08-21T00:34:25.664Z,22.40
2022-08-21T00:36:52.635Z,22.40
2022-08-21T00:39:19.730Z,22.30
2022-08-21T00:41:46.809Z,22.40
2022-08-21T00:44:15.084Z,22.30
2022-08-21T00:46:43.315Z,22.30
2022-08-21T00:49:12.863Z,22.40
2022-08-21T00:51:53.252Z,22.30
2022-08-21T00:54:25.565Z,22.30
2022-08-21T00:56:56.735Z,22.30
2022-08-21T00:59:27.604Z,22.30
2022-08-21T01:01:55.004Z,22.30
2022-08-21T01:04:23.520Z,22.20
2022-08-21T01:06:52.429Z,22.20
2022-08-21T01:09:20.872Z,22.20
2022-08-21T01:11:48.523Z,22.20
2022-08-21T01:14:15.801Z,22.10
2022-08-21T01:16:46.914Z,22.10
2022-08-21T01:19:15.934Z,22.10
2022-08-21T01:21:44.060Z,22.00
2022-08-21T01:24:11.704Z,22.10
2022-08-21T01:26:38.880Z,22.10
2022-08-21T01:29:28.351Z,22.10
2022-08-21T01:31:55.332Z,22.10
2022-08-21T01:34:22.391Z,22.10
2022-08-21T01:36:49.865Z,22.10
2022-08-21T01:39:17.362Z,22.10
2022-08-21T01:41:44.402Z,22.00
2022-08-21T01:44:11.588Z,22.00
2022-08-21T01:46:39.312Z,22.00
2022-08-21T01:49:06.795Z,21.90
2022-08-21T01:51:33.817Z,22.00
2022-08-21T01:54:00.852Z,22.00
2022-08-21T01:56:28.942Z,22.00
2022-08-21T01:58:56.006Z,22.00
2022-08-21T02:01:23.220Z,22.00
2022-08-21T02:03:50.261Z,21.90
2022-08-21T02:06:18.876Z,21.80
2022-08-21T02:08:47.258Z,21.90
2022-08-21T02:11:14.623Z,21.90
2022-08-21T02:13:41.574Z,21.90
2022-08-21T02:16:09.484Z,21.80
2022-08-21T02:18:36.861Z,21.80
2022-08-21T02:21:05.375Z,21.70
2022-08-21T02:23:33.072Z,21.70
2022-08-21T02:26:01.182Z,21.70
2022-08-21T02:28:28.509Z,21.80
2022-08-21T02:30:57.234Z,21.70
2022-08-21T02:33:25.267Z,21.70
2022-08-21T02:35:53.006Z,21.70
2022-08-21T02:38:34.259Z,21.70
2022-08-21T02:41:01.998Z,21.80
2022-08-21T02:43:29.611Z,21.70
2022-08-21T02:45:58.331Z,21.70
2022-08-21T02:48:29.155Z,21.70
2022-08-21T02:51:00.764Z,21.60
2022-08-21T02:53:29.087Z,21.60
2022-08-21T02:55:59.191Z,21.60
2022-08-21T02:58:32.304Z,21.50
2022-08-21T03:00:59.440Z,21.60
2022-08-21T03:03:28.021Z,21.60
2022-08-21T03:05:56.111Z,21.60
2022-08-21T03:08:24.202Z,21.60
2022-08-21T03:10:55.112Z,21.60
2022-08-21T03:13:22.114Z,21.60
2022-08-21T03:15:50.396Z,21.60
2022-08-21T03:18:18.267Z,21.60
2022-08-21T03:20:46.293Z,21.60
2022-08-21T03:23:16.741Z,21.60
2022-08-21T03:25:45.150Z,21.50
2022-08-21T03:28:16.034Z,21.50
2022-08-21T03:30:45.111Z,21.40
2022-08-21T03:33:14.931Z,21.50
2022-08-21T03:35:44.081Z,21.50
2022-08-21T03:38:13.780Z,21.50
2022-08-21T03:40:42.281Z,21.50
2022-08-21T03:43:10.431Z,21.50
2022-08-21T03:45:38.468Z,21.50
2022-08-21T03:48:07.752Z,21.40
2022-08-21T03:50:40.818Z,21.30
2022-08-21T03:53:16.685Z,21.30
2022-08-21T03:55:48.519Z,21.30
2022-08-21T03:58:21.651Z,21.30
2022-08-21T04:00:51.445Z,21.30
2022-08-21T04:03:18.987Z,21.30
2022-08-21T04:06:10.920Z,21.30
2022-08-21T04:08:37.976Z,21.30
2022-08-21T04:11:06.455Z,21.30
2022-08-21T04:13:33.461Z,21.30
2022-08-21T04:16:00.459Z,21.20
2022-08-21T04:18:27.596Z,21.30
2022-08-21T04:20:56.998Z,21.30
2022-08-21T04:23:26.516Z,21.20
2022-08-21T04:25:55.493Z,21.20
2022-08-21T04:28:29.002Z,21.20
2022-08-21T04:30:57.969Z,21.10
2022-08-21T04:33:25.402Z,21.20
2022-08-21T04:35:52.540Z,21.20
2022-08-21T04:38:19.982Z,21.20
2022-08-21T04:40:48.429Z,21.20
2022-08-21T04:43:15.782Z,21.20
2022-08-21T04:45:45.659Z,21.10
2022-08-21T04:48:15.224Z,21.20
2022-08-21T04:51:03.466Z,21.30
2022-08-21T04:53:47.716Z,21.30
2022-08-21T04:56:27.796Z,21.40
2022-08-21T04:58:57.946Z,21.30
2022-08-21T05:01:28.366Z,21.30
2022-08-21T05:03:59.654Z,21.30
2022-08-21T05:06:28.680Z,21.40
2022-08-21T05:09:02.156Z,21.40
2022-08-21T05:11:31.544Z,21.40
2022-08-21T05:13:59.034Z,21.40
2022-08-21T05:16:36.565Z,21.50
2022-08-21T05:19:05.922Z,21.50
2022-08-21T05:21:33.750Z,21.60
2022-08-21T05:24:00.831Z,21.60
2022-08-21T05:26:27.799Z,21.70
2022-08-21T05:28:54.745Z,21.70
2022-08-21T05:31:21.759Z,21.80
2022-08-21T05:33:48.920Z,21.80
2022-08-21T05:36:19.953Z,21.80
2022-08-21T05:38:46.994Z,21.80
2022-08-21T05:41:13.993Z,21.80
2022-08-21T05:43:40.941Z,21.90
2022-08-21T05:46:09.017Z,21.90
2022-08-21T05:48:37.470Z,22.00
2022-08-21T05:51:14.227Z,22.10
2022-08-21T05:53:43.165Z,22.10
2022-08-21T05:56:11.585Z,22.20
2022-08-21T05:58:38.714Z,22.40
2022-08-21T06:01:06.288Z,22.40
2022-08-21T06:03:37.251Z,22.50
2022-08-21T06:06:05.048Z,22.60
2022-08-21T06:08:32.463Z,22.70
2022-08-21T06:11:00.977Z,22.90
2022-08-21T06:13:28.983Z,23.60
2022-08-21T06:16:10.192Z,23.70
2022-08-21T06:18:38.698Z,24.00
2022-08-21T06:21:06.315Z,23.90
2022-08-21T06:23:34.168Z,24.50
2022-08-21T06:26:02.725Z,24.40
2022-08-21T06:28:30.103Z,24.50
2022-08-21T06:30:57.116Z,25.20
2022-08-21T06:33:26.342Z,29.20
2022-08-21T06:35:56.435Z,32.50
2022-08-21T06:38:23.665Z,34.80
2022-08-21T06:40:50.620Z,35.70
2022-08-21T06:43:19.913Z,35.80
2022-08-21T06:45:46.908Z,35.60
2022-08-21T06:48:18.898Z,36.20
2022-08-21T06:50:47.279Z,36.60
2022-08-21T06:53:21.516Z,36.80
2022-08-21T06:55:49.505Z,36.80
2022-08-21T06:58:16.844Z,37.00
2022-08-21T07:00:48.217Z,36.80
2022-08-21T07:03:38.038Z,37.30
2022-08-21T07:59:39.010Z,29.60
2022-08-21T08:06:31.610Z,29.80
2022-08-21T08:13:18.628Z,29.60
2022-08-21T08:15:45.557Z,29.70
2022-08-21T08:18:12.659Z,29.60
2022-08-21T08:20:39.599Z,29.80
2022-08-21T08:23:06.816Z,30.00
2022-08-21T08:25:36.514Z,30.00
2022-08-21T08:28:07.346Z,30.20
2022-08-21T08:30:45.715Z,30.20
2022-08-21T08:33:13.076Z,30.00
2022-08-21T08:35:46.032Z,30.00
2022-08-21T08:38:13.290Z,30.10
2022-08-21T08:40:49.100Z,30.20
2022-08-21T08:43:16.129Z,30.40
2022-08-21T08:45:47.846Z,30.40
2022-08-21T08:48:41.288Z,30.70
2022-08-21T08:55:40.309Z,30.80
2022-08-21T08:58:07.919Z,30.40
2022-08-21T09:00:35.123Z,30.60
2022-08-21T09:03:03.999Z,30.60
2022-08-21T09:05:34.783Z,30.70
2022-08-21T09:08:09.381Z,30.90
2022-08-21T09:11:06.695Z,31.00
2022-08-21T09:13:45.952Z,31.00
2022-08-21T09:16:45.123Z,30.90
2022-08-21T09:19:34.153Z,30.70
2022-08-21T09:22:31.646Z,30.80
2022-08-21T09:25:36.893Z,31.20
2022-08-21T09:28:03.726Z,31.00
2022-08-21T09:30:33.507Z,30.90
2022-08-21T09:33:00.926Z,30.90
2022-08-21T09:35:28.212Z,30.80
2022-08-21T09:38:03.905Z,30.80
2022-08-21T09:40:36.812Z,30.80
2022-08-21T09:43:21.883Z,31.10
2022-08-21T09:46:01.654Z,31.50
2022-08-21T09:48:32.575Z,31.00
2022-08-21T09:51:21.594Z,30.70
2022-08-21T09:54:19.684Z,31.20
2022-08-21T09:57:31.144Z,31.40
2022-08-21T10:00:30.783Z,31.60
2022-08-21T10:03:19.745Z,31.20
2022-08-21T10:05:58.850Z,31.20
2022-08-21T10:08:28.520Z,31.60
2022-08-21T10:11:07.057Z,31.80
2022-08-21T10:13:45.692Z,31.80
2022-08-21T10:16:30.761Z,32.00
2022-08-21T10:19:23.614Z,32.10
2022-08-21T10:22:00.071Z,32.20
2022-08-21T10:24:42.064Z,32.10
2022-08-21T10:27:14.744Z,31.80
2022-08-21T10:29:47.540Z,32.20
2022-08-21T10:36:40.372Z,32.30
2022-08-21T10:39:26.345Z,32.50
2022-08-21T10:42:23.749Z,32.50
2022-08-21T10:45:13.366Z,32.30
2022-08-21T10:47:49.413Z,32.30
2022-08-21T10:50:35.148Z,32.50
2022-08-21T10:53:26.495Z,33.10
2022-08-21T10:55:58.705Z,32.90
2022-08-21T10:58:37.864Z,32.80
2022-08-21T11:01:16.367Z,32.50
2022-08-21T11:03:47.786Z,32.30
2022-08-21T11:06:26.165Z,32.40
2022-08-21T11:13:16.095Z,33.20
2022-08-21T11:16:06.397Z,32.90
2022-08-21T11:18:42.084Z,32.70
2022-08-21T11:21:27.103Z,32.50
2022-08-21T11:24:04.732Z,32.60
2022-08-21T11:26:58.221Z,33.10
2022-08-21T11:33:53.258Z,32.70
2022-08-21T11:40:38.011Z,32.60
2022-08-21T11:43:21.699Z,32.90
2022-08-21T11:46:00.868Z,33.10
2022-08-21T11:48:56.689Z,33.10
2022-08-21T11:51:33.876Z,33.60
2022-08-21T11:54:32.835Z,33.70
2022-08-21T11:57:46.750Z,33.80
2022-08-21T12:00:36.819Z,33.80
2022-08-21T12:03:14.841Z,33.70
2022-08-21T12:05:45.492Z,33.00
2022-08-21T12:08:12.320Z,32.80
2022-08-21T12:11:18.853Z,32.90
2022-08-21T12:13:59.659Z,33.10
2022-08-21T12:16:47.422Z,33.10
2022-08-21T12:19:30.474Z,33.20
2022-08-21T12:22:11.442Z,33.30
2022-08-21T12:24:41.770Z,33.60
2022-08-21T12:27:29.542Z,34.10
2022-08-21T12:30:20.293Z,33.30
2022-08-21T12:33:00.044Z,33.30
2022-08-21T12:35:33.417Z,33.70
2022-08-21T12:38:19.683Z,34.00
2022-08-21T12:41:10.797Z,34.10
2022-08-21T12:43:49.760Z,34.00
2022-08-21T12:46:55.569Z,33.90
2022-08-21T12:49:51.521Z,33.80
2022-08-21T12:52:46.716Z,33.20
2022-08-21T12:55:19.242Z,33.40
2022-08-21T12:57:46.223Z,33.60
2022-08-21T13:00:15.650Z,34.00
2022-08-21T13:02:50.272Z,33.80
2022-08-21T13:05:28.039Z,33.60
2022-08-21T13:07:55.053Z,33.50
2022-08-21T13:10:26.511Z,33.50
2022-08-21T13:13:12.811Z,33.30
2022-08-21T13:15:47.473Z,33.10
2022-08-21T13:18:28.164Z,32.70
2022-08-21T13:21:06.488Z,33.00
2022-08-21T13:23:33.620Z,33.50
2022-08-21T13:26:00.741Z,33.50
2022-08-21T13:28:35.374Z,33.20
2022-08-21T13:31:05.157Z,33.20
2022-08-21T13:33:34.036Z,33.30
2022-08-21T13:36:41.404Z,33.20
2022-08-21T13:39:11.820Z,33.00
2022-08-21T13:41:42.447Z,33.30
2022-08-21T13:44:38.826Z,33.40
2022-08-21T13:47:07.306Z,33.10
2022-08-21T13:49:40.219Z,33.00
2022-08-21T13:52:16.844Z,33.20
2022-08-21T13:54:45.740Z,33.30
2022-08-21T13:57:21.050Z,33.50
2022-08-21T13:59:48.107Z,33.00
2022-08-21T14:02:23.784Z,32.90
2022-08-21T14:05:00.255Z,33.20
2022-08-21T14:07:37.569Z,33.20
2022-08-21T14:10:07.516Z,33.10
2022-08-21T14:12:43.149Z,33.40
2022-08-21T14:15:14.147Z,33.10
2022-08-21T14:17:42.578Z,33.10
2022-08-21T14:20:31.804Z,33.30
2022-08-21T14:22:58.872Z,33.30
2022-08-21T14:25:25.802Z,33.40
2022-08-21T14:27:54.331Z,33.30
2022-08-21T14:30:42.101Z,33.40
2022-08-21T14:33:15.096Z,33.10
2022-08-21T14:35:42.709Z,32.70
2022-08-21T14:38:23.894Z,32.70
2022-08-21T14:41:04.418Z,32.60
2022-08-21T14:43:32.227Z,32.90
2022-08-21T14:45:59.082Z,33.10
2022-08-21T14:48:25.959Z,33.00
2022-08-21T14:50:57.124Z,33.00
2022-08-21T14:53:26.760Z,33.00
2022-08-21T14:56:06.506Z,32.90
2022-08-21T14:58:36.233Z,32.50
2022-08-21T15:01:05.045Z,32.50
2022-08-21T15:03:33.293Z,32.40
2022-08-21T15:06:00.944Z,32.40
2022-08-21T15:08:27.890Z,32.30
2022-08-21T15:11:11.031Z,32.40
2022-08-21T15:13:39.960Z,32.30
2022-08-21T15:16:08.893Z,32.30
2022-08-21T15:18:35.818Z,32.30
2022-08-21T15:21:02.757Z,32.30
2022-08-21T15:23:29.776Z,32.40
2022-08-21T15:25:58.548Z,32.40
2022-08-21T15:28:27.116Z,32.50
2022-08-21T15:31:01.329Z,32.40
2022-08-21T15:33:28.943Z,32.50
2022-08-21T15:35:55.889Z,32.30
2022-08-21T15:38:22.990Z,32.20
2022-08-21T15:40:52.056Z,32.20
2022-08-21T15:43:32.190Z,32.00
2022-08-21T15:46:00.633Z,32.00
2022-08-21T15:48:27.938Z,31.90
2022-08-21T15:50:54.816Z,31.90
2022-08-21T15:53:21.865Z,32.10
2022-08-21T15:55:48.768Z,31.90
2022-08-21T15:58:17.328Z,31.80
2022-08-21T16:00:45.622Z,31.80
2022-08-21T16:03:17.540Z,31.70
2022-08-21T16:05:49.554Z,31.50
2022-08-21T16:08:16.599Z,31.30
2022-08-21T16:10:43.711Z,31.30
2022-08-21T16:13:20.996Z,31.50
2022-08-21T16:15:47.957Z,31.30
2022-08-21T16:18:15.115Z,31.30
2022-08-21T16:20:42.093Z,31.40
2022-08-21T16:23:09.260Z,31.30
2022-08-21T16:25:39.982Z,31.20
2022-08-21T16:28:12.995Z,31.30
2022-08-21T16:30:41.024Z,31.20
2022-08-21T16:33:12.556Z,31.10
2022-08-21T16:35:39.420Z,31.00
2022-08-21T16:38:06.318Z,31.20
2022-08-21T16:40:33.462Z,31.10
2022-08-21T16:43:00.576Z,31.10
2022-08-21T16:45:32.908Z,31.00
2022-08-21T16:48:00.454Z,31.00
2022-08-21T16:50:27.409Z,31.00
2022-08-21T16:52:54.511Z,30.90
2022-08-21T16:55:21.467Z,30.80
2022-08-21T16:57:48.569Z,30.70
2022-08-21T17:00:15.985Z,30.70
2022-08-21T17:02:48.324Z,30.60
2022-08-21T17:05:15.898Z,30.60
2022-08-21T17:07:44.003Z,30.60
2022-08-21T17:10:13.091Z,30.50
2022-08-21T17:12:44.722Z,30.50
2022-08-21T17:15:24.812Z,30.40
2022-08-21T17:17:52.326Z,30.40
2022-08-21T17:20:20.795Z,30.30
2022-08-21T17:22:47.845Z,30.20
2022-08-21T17:25:15.156Z,30.10
2022-08-21T17:27:44.137Z,30.10
2022-08-21T17:30:12.597Z,30.00
2022-08-21T17:32:40.403Z,29.90
2022-08-21T17:35:07.881Z,29.80
2022-08-21T17:37:36.224Z,29.70
2022-08-21T17:40:05.944Z,29.30
2022-08-21T17:42:33.813Z,28.90
2022-08-21T17:49:19.143Z,28.40
2022-08-21T17:51:46.143Z,28.20
2022-08-21T17:58:38.161Z,27.50
2022-08-21T18:01:05.979Z,27.20
2022-08-21T18:07:51.009Z,27.00
2022-08-21T18:14:37.507Z,26.70
2022-08-21T18:21:31.111Z,26.50
2022-08-21T18:23:58.255Z,26.40
2022-08-21T18:26:32.916Z,26.30
2022-08-21T18:29:01.509Z,26.10
2022-08-21T18:31:33.458Z,26.10
2022-08-21T18:34:03.325Z,26.10
2022-08-21T18:36:31.163Z,26.00
2022-08-21T18:43:17.257Z,25.90
2022-08-21T18:45:45.536Z,25.70
2022-08-21T18:48:14.557Z,25.70
2022-08-21T18:50:45.216Z,25.60
2022-08-21T18:57:35.790Z,25.50
2022-08-21T19:00:11.553Z,25.40
2022-08-21T19:02:40.308Z,25.40
2022-08-21T19:05:13.535Z,25.20
2022-08-21T19:12:06.269Z,25.00
2022-08-21T19:14:33.349Z,25.00
2022-08-21T19:17:00.509Z,24.90
2022-08-21T19:19:27.456Z,25.00
2022-08-21T19:21:54.350Z,24.90
2022-08-21T19:27:10.751Z,25.00
2022-08-21T19:29:39.641Z,24.90
2022-08-21T19:32:07.578Z,24.90
2022-08-21T19:38:55.140Z,24.70
2022-08-21T19:45:47.414Z,24.70
2022-08-21T19:48:15.988Z,24.60
2022-08-21T19:50:46.034Z,24.60
2022-08-21T19:53:13.016Z,24.50
2022-08-21T19:55:44.628Z,24.50
2022-08-21T20:02:30.319Z,24.50
2022-08-21T20:04:57.273Z,24.60
2022-08-21T20:07:26.643Z,24.70
2022-08-21T20:09:54.709Z,24.70
2022-08-21T20:12:22.873Z,24.70
2022-08-21T20:14:50.829Z,24.70
2022-08-21T20:21:31.068Z,24.70
2022-08-21T20:24:10.983Z,24.60
2022-08-21T20:26:49.545Z,24.60
2022-08-21T20:29:36.118Z,24.50
2022-08-21T20:32:08.002Z,24.40
2022-08-21T20:34:40.071Z,24.50
2022-08-21T20:41:30.930Z,24.60
2022-08-21T20:43:59.288Z,24.70
2022-08-21T20:46:29.301Z,24.80
2022-08-21T20:53:50.116Z,24.70
2022-08-21T20:56:31.587Z,24.60
2022-08-21T20:59:06.371Z,24.60
2022-08-21T21:01:34.588Z,24.50
2022-08-21T21:04:18.689Z,24.50
2022-08-21T21:06:49.804Z,24.50
2022-08-21T21:09:32.566Z,24.40
2022-08-21T21:12:04.023Z,24.30
2022-08-21T21:14:45.424Z,24.30
2022-08-21T21:17:32.190Z,24.30
2022-08-21T21:20:06.703Z,24.20
2022-08-21T21:22:50.940Z,24.20
2022-08-21T21:25:39.756Z,24.30
2022-08-21T21:28:16.931Z,24.30
2022-08-21T21:35:13.502Z,24.20
2022-08-21T21:37:59.155Z,24.20
2022-08-21T21:44:58.463Z,24.10
2022-08-21T21:47:43.492Z,24.10
2022-08-21T21:50:19.009Z,24.00
2022-08-21T21:52:58.116Z,23.90
2022-08-21T21:55:29.074Z,23.90
2022-08-21T21:58:16.883Z,23.80
2022-08-21T22:00:52.246Z,23.80
2022-08-21T22:03:46.198Z,23.80
2022-08-21T22:06:25.684Z,23.70
2022-08-21T22:09:03.681Z,23.70
2022-08-21T22:11:55.358Z,23.80
2022-08-21T22:14:34.414Z,23.80
2022-08-21T22:17:15.637Z,23.80
2022-08-21T22:19:45.777Z,23.80
2022-08-21T22:22:23.185Z,23.80
2022-08-21T22:24:58.175Z,23.80
2022-08-21T22:27:34.329Z,23.70
2022-08-21T22:30:06.478Z,23.70
2022-08-21T22:32:52.436Z,23.80
2022-08-21T22:35:32.430Z,23.80
2022-08-21T22:38:01.489Z,23.80
2022-08-21T22:40:35.065Z,23.90
2022-08-21T22:43:14.740Z,23.80
2022-08-21T22:45:57.394Z,23.70
2022-08-21T22:48:29.368Z,23.60
2022-08-21T22:51:03.684Z,23.60
2022-08-21T22:53:34.708Z,23.60
2022-08-21T22:56:06.207Z,23.60
2022-08-21T22:58:52.140Z,23.60
2022-08-21T23:01:21.989Z,23.60
2022-08-21T23:06:52.884Z,23.80
2022-08-21T23:09:28.995Z,24.10
2022-08-21T23:11:59.696Z,24.10
2022-08-21T23:14:28.033Z,23.80
2022-08-21T23:17:18.301Z,23.60
2022-08-21T23:20:40.184Z,23.60
2022-08-21T23:23:17.928Z,23.50
2022-08-21T23:25:53.846Z,23.50
2022-08-21T23:28:48.438Z,23.50
2022-08-21T23:31:18.344Z,23.60
2022-08-21T23:34:08.074Z,23.60
2022-08-21T23:37:05.471Z,23.60
2022-08-21T23:39:41.193Z,23.50
2022-08-21T23:42:38.522Z,23.50
2022-08-21T23:45:17.870Z,23.40
2022-08-21T23:48:12.344Z,23.20
2022-08-21T23:51:08.365Z,23.10
2022-08-21T23:54:04.304Z,23.10
2022-08-21T23:56:39.865Z,23.00
2022-08-21T23:59:10.269Z,23.00
